createdAt,value
2022-09-09T00:03:19.519Z,24.16
2022-09-09T00:08:32.671Z,26.52
2022-09-09T00:13:43.750Z,26.54
2022-09-09T00:19:19.233Z,24.77
2022-09-09T00:24:45.128Z,23.46
2022-09-09T00:30:15.291Z,23.96
2022-09-09T00:35:24.910Z,26.15
2022-09-09T00:40:33.126Z,26.30
2022-09-09T00:46:03.858Z,24.68
2022-09-09T00:51:24.893Z,23.57
2022-09-09T00:57:03.307Z,24.09
2022-09-09T01:02:23.463Z,26.30
2022-09-09T01:07:27.354Z,25.45
2022-09-09T01:12:44.843Z,23.98
2022-09-09T01:17:59.185Z,23.11
2022-09-09T01:23:36.570Z,24.73
2022-09-09T01:28:55.697Z,25.42
2022-09-09T01:34:12.715Z,23.89
2022-09-09T01:39:16.339Z,22.94
2022-09-09T01:44:21.102Z,23.50
2022-09-09T01:49:24.822Z,25.81
2022-09-09T01:54:31.043Z,25.94
2022-09-09T02:00:11.773Z,24.38
2022-09-09T02:05:38.052Z,23.35
2022-09-09T02:10:59.747Z,23.97
2022-09-09T02:16:25.752Z,26.13
2022-09-09T02:21:33.032Z,25.10
2022-09-09T02:26:41.541Z,23.79
2022-09-09T02:31:48.425Z,22.92
2022-09-09T02:36:56.391Z,23.42
2022-09-09T02:41:59.312Z,25.59
2022-09-09T02:47:29.689Z,25.36
2022-09-09T02:53:00.260Z,23.68
2022-09-09T02:58:08.199Z,22.68
2022-09-09T03:03:12.037Z,23.23
2022-09-09T03:08:15.615Z,25.39
2022-09-09T03:13:20.410Z,25.26
2022-09-09T03:18:24.182Z,23.62
2022-09-09T03:23:29.246Z,22.57
2022-09-09T03:28:34.303Z,23.02
2022-09-09T03:33:39.265Z,25.23
2022-09-09T03:38:42.962Z,25.37
2022-09-09T03:43:46.001Z,23.66
2022-09-09T03:48:49.100Z,22.56
2022-09-09T03:53:52.115Z,22.92
2022-09-09T03:58:55.193Z,25.09
2022-09-09T04:03:59.302Z,25.20
2022-09-09T04:09:04.348Z,23.51
2022-09-09T04:14:07.743Z,22.37
2022-09-09T04:19:14.767Z,23.20
2022-09-09T04:24:18.738Z,25.12
2022-09-09T04:29:21.828Z,25.04
2022-09-09T04:34:24.816Z,23.39
2022-09-09T04:39:31.931Z,22.32
2022-09-09T04:44:35.721Z,22.73
2022-09-09T04:49:39.558Z,24.93
2022-09-09T04:54:42.757Z,25.13
2022-09-09T04:59:46.936Z,23.54
2022-09-09T05:04:50.850Z,22.50
2022-09-09T05:09:53.891Z,22.93
2022-09-09T05:14:56.763Z,25.19
2022-09-09T05:19:59.873Z,25.31
2022-09-09T05:25:03.220Z,23.66
2022-09-09T05:30:07.516Z,22.66
2022-09-09T05:35:11.241Z,23.07
2022-09-09T05:40:15.696Z,25.22
2022-09-09T05:45:18.596Z,25.16
2022-09-09T05:50:21.573Z,23.63
2022-09-09T05:55:26.645Z,22.67
2022-09-09T06:00:32.715Z,23.11
2022-09-09T06:05:36.290Z,25.27
2022-09-09T06:10:39.241Z,24.82
2022-09-09T06:15:51.231Z,23.32
2022-09-09T06:21:02.127Z,22.33
2022-09-09T06:26:09.199Z,22.81
2022-09-09T06:31:14.892Z,25.01
2022-09-09T06:36:19.514Z,24.06
2022-09-09T06:41:23.939Z,22.89
2022-09-09T06:46:29.415Z,22.21
2022-09-09T06:51:35.783Z,22.88
2022-09-09T06:56:44.643Z,25.13
2022-09-09T07:01:58.136Z,24.30
2022-09-09T07:07:02.624Z,23.12
2022-09-09T07:12:06.966Z,22.36
2022-09-09T07:17:10.720Z,22.94
2022-09-09T07:22:15.681Z,25.18
2022-09-09T07:27:19.025Z,24.38
2022-09-09T07:32:24.424Z,23.25
2022-09-09T07:37:27.827Z,22.58
2022-09-09T07:42:31.156Z,22.05
2022-09-09T07:47:34.725Z,22.79
2022-09-09T07:52:38.607Z,24.95
2022-09-09T07:57:42.265Z,23.97
2022-09-09T08:02:45.780Z,23.00
2022-09-09T08:07:49.329Z,22.43
2022-09-09T08:13:14.921Z,22.11
2022-09-09T08:18:16.652Z,23.18
2022-09-09T08:23:20.307Z,24.97
2022-09-09T08:28:23.274Z,23.98
2022-09-09T08:33:26.728Z,23.31
2022-09-09T08:38:29.773Z,22.98
2022-09-09T08:43:34.416Z,22.70
2022-09-09T08:48:49.970Z,22.48
2022-09-09T08:53:59.018Z,22.34
2022-09-09T08:59:04.486Z,22.27
2022-09-09T09:04:40.705Z,22.26
2022-09-09T09:10:00.286Z,22.29
2022-09-09T09:15:18.197Z,22.33
2022-09-09T09:20:45.253Z,22.38
2022-09-09T09:25:51.244Z,22.43
2022-09-09T09:31:02.806Z,22.49
2022-09-09T09:36:09.215Z,22.58
2022-09-09T09:41:12.517Z,22.60
2022-09-09T09:46:24.851Z,22.60
2022-09-09T09:51:31.437Z,22.65
2022-09-09T09:56:34.682Z,22.70
2022-09-09T10:02:18.322Z,22.78
2022-09-09T10:07:23.656Z,22.84
2022-09-09T10:13:02.061Z,22.95
2022-09-09T10:18:23.105Z,23.11
2022-09-09T10:23:28.709Z,23.25
2022-09-09T10:28:50.500Z,23.40
2022-09-09T10:34:18.320Z,23.66
2022-09-09T10:39:39.223Z,23.89
2022-09-09T10:45:09.426Z,24.04
2022-09-09T10:50:28.076Z,24.12
2022-09-09T10:55:46.470Z,24.17
2022-09-09T11:00:58.281Z,24.12
2022-09-09T11:06:07.862Z,24.05
2022-09-09T11:11:33.261Z,24.00
2022-09-09T11:16:49.709Z,24.03
2022-09-09T11:21:54.407Z,24.08
2022-09-09T11:27:04.202Z,24.09
2022-09-09T11:32:48.290Z,24.21
2022-09-09T11:38:06.136Z,24.34
2022-09-09T11:43:32.061Z,24.45
2022-09-09T11:53:29.196Z,24.87
2022-09-09T11:58:39.294Z,25.10
2022-09-09T12:03:47.967Z,25.42
2022-09-09T12:08:58.233Z,25.70
2022-09-09T12:14:02.327Z,25.95
2022-09-09T12:19:06.816Z,26.25
2022-09-09T12:24:20.060Z,26.46
2022-09-09T12:29:34.295Z,26.50
2022-09-09T12:34:42.684Z,26.57
2022-09-09T12:39:52.402Z,26.58
2022-09-09T12:45:18.103Z,26.43
2022-09-09T12:50:27.354Z,26.16
2022-09-09T12:55:34.469Z,25.89
2022-09-09T13:00:37.420Z,25.67
2022-09-09T13:05:40.399Z,25.46
2022-09-09T13:10:58.670Z,25.29
2022-09-09T13:16:09.537Z,25.15
2022-09-09T13:21:12.979Z,25.09
2022-09-09T13:26:24.286Z,25.08
2022-09-09T13:31:33.801Z,25.03
2022-09-09T13:36:36.896Z,25.00
2022-09-09T13:41:49.584Z,25.01
2022-09-09T13:47:10.572Z,25.06
2022-09-09T13:52:19.944Z,25.03
2022-09-09T13:57:26.337Z,24.96
2022-09-09T14:02:29.381Z,24.86
2022-09-09T14:07:33.188Z,24.76
2022-09-09T14:12:37.430Z,24.66
2022-09-09T14:17:40.414Z,24.58
2022-09-09T14:22:43.309Z,24.51
2022-09-09T14:27:47.042Z,24.45
2022-09-09T14:32:50.037Z,24.36
2022-09-09T14:37:52.905Z,24.26
2022-09-09T14:42:57.476Z,24.19
2022-09-09T14:48:00.986Z,24.13
2022-09-09T14:53:03.948Z,24.08
2022-09-09T14:58:07.387Z,24.06
2022-09-09T15:03:11.893Z,24.06
2022-09-09T15:08:17.163Z,24.07
2022-09-09T15:13:20.037Z,24.08
2022-09-09T15:18:22.901Z,24.08
2022-09-09T15:23:26.129Z,24.07
2022-09-09T15:28:29.653Z,24.05
2022-09-09T15:33:33.132Z,24.04
2022-09-09T15:38:35.915Z,24.02
2022-09-09T15:43:40.321Z,23.96
2022-09-09T15:48:46.661Z,23.88
2022-09-09T15:53:58.655Z,23.81
2022-09-09T15:59:04.809Z,23.75
2022-09-09T16:04:07.765Z,23.71
2022-09-09T16:09:11.309Z,23.65
2022-09-09T16:14:16.711Z,23.59
2022-09-09T16:19:20.190Z,23.55
2022-09-09T16:24:24.731Z,23.50
2022-09-09T16:29:28.434Z,23.46
2022-09-09T16:34:31.910Z,23.40
2022-09-09T16:39:34.997Z,23.34
2022-09-09T16:44:38.336Z,23.27
2022-09-09T16:49:41.787Z,23.20
2022-09-09T16:54:46.346Z,23.13
2022-09-09T16:59:50.284Z,23.07
2022-09-09T17:04:53.656Z,23.02
2022-09-09T17:09:56.807Z,22.94
2022-09-09T17:15:01.783Z,22.87
2022-09-09T17:20:07.302Z,22.79
2022-09-09T17:25:10.159Z,22.72
2022-09-09T17:30:13.702Z,22.66
2022-09-09T17:35:17.409Z,22.56
2022-09-09T17:40:21.420Z,22.49
2022-09-09T17:45:24.350Z,22.41
2022-09-09T17:50:27.485Z,22.34
2022-09-09T17:55:30.292Z,22.27
2022-09-09T18:00:33.335Z,22.20
2022-09-09T18:05:36.196Z,22.13
2022-09-09T18:10:39.717Z,22.07
2022-09-09T18:15:49.221Z,22.01
2022-09-09T18:20:59.858Z,21.95
2022-09-09T18:26:11.140Z,21.88
2022-09-09T18:31:16.039Z,21.82
2022-09-09T18:36:44.487Z,21.77
2022-09-09T18:41:50.379Z,21.73
2022-09-09T18:46:54.518Z,21.68
2022-09-09T18:51:58.074Z,21.63
2022-09-09T18:57:01.596Z,21.57
2022-09-09T19:02:04.894Z,21.53
2022-09-09T19:07:08.004Z,22.47
2022-09-09T19:12:11.170Z,24.49
2022-09-09T19:17:14.214Z,23.62
2022-09-09T19:22:17.902Z,23.03
2022-09-09T19:27:20.819Z,22.69
2022-09-09T19:37:47.814Z,22.17
2022-09-09T19:42:53.566Z,21.96
2022-09-09T19:47:56.466Z,21.78
2022-09-09T19:53:00.238Z,21.62
2022-09-09T19:58:04.393Z,21.48
2022-09-09T20:03:18.590Z,21.37
2022-09-09T20:08:22.686Z,22.42
2022-09-09T20:13:25.794Z,25.05
2022-09-09T20:18:33.131Z,25.20
2022-09-09T20:23:37.555Z,24.02
2022-09-09T20:28:42.379Z,23.36
2022-09-09T20:33:48.150Z,22.88
2022-09-09T20:38:57.978Z,22.50
2022-09-09T20:44:07.887Z,22.17
2022-09-09T20:49:12.008Z,21.89
2022-09-09T20:54:18.158Z,21.66
2022-09-09T20:59:23.675Z,22.47
2022-09-09T21:04:26.773Z,25.04
2022-09-09T21:09:29.664Z,25.34
2022-09-09T21:14:32.776Z,24.06
2022-09-09T21:19:35.868Z,23.33
2022-09-09T21:24:38.765Z,22.82
2022-09-09T21:29:42.454Z,22.39
2022-09-09T21:34:46.131Z,22.03
2022-09-09T21:39:48.977Z,21.72
2022-09-09T21:44:51.869Z,22.54
2022-09-09T21:49:54.699Z,24.96
2022-09-09T21:54:58.102Z,25.38
2022-09-09T22:00:01.256Z,24.06
2022-09-09T22:05:05.206Z,23.23
2022-09-09T22:10:10.136Z,22.67
2022-09-09T22:15:13.419Z,22.22
2022-09-09T22:20:16.461Z,21.85
2022-09-09T22:25:19.530Z,22.67
2022-09-09T22:30:22.467Z,24.98
2022-09-09T22:35:25.333Z,25.17
2022-09-09T22:40:28.187Z,23.88
2022-09-09T22:45:32.671Z,23.09
2022-09-09T22:50:41.942Z,22.52
2022-09-09T22:55:59.499Z,22.04
2022-09-09T23:01:15.545Z,22.75
2022-09-09T23:06:24.461Z,25.07
2022-09-09T23:11:31.790Z,24.90
2022-09-09T23:16:45.398Z,23.57
2022-09-09T23:21:48.612Z,22.78
2022-09-09T23:26:53.050Z,22.21
2022-09-09T23:31:55.970Z,21.75
2022-09-09T23:36:58.919Z,22.37
2022-09-09T23:42:06.146Z,24.75
2022-09-09T23:47:09.584Z,25.10
2022-09-09T23:52:12.718Z,23.69
2022-09-09T23:57:15.549Z,22.80
